Airfield :
LOGIN :

Register | Disclaimer

   EN    FR    IT 

 










Legend :    VFR   Marginal VFR   IFR   Intensive IFR   Very Intensive IFR
Visi :
Ceiling :
>= 8 km
>= 3000ft
5 to 8 km
1000 to 3000 ft
1500m to 5 km
500 to 1000 ft
800 to 1500m
200 to 500 ft
< 800m
< 200 ft
Symbols :   Thunderstorms  Fog  Heavy snow  Heavy precipitations  Wind > 20 kt
SIGMETs :     Misc.  Thunderstorms  Icing  Turbulence  Mountain Waves  Volcanic Ashes






- Airport Elevation : 90 ft
- IATA code : NTE


LFRS - Nantes

CURRENT METAR :
  • 231830Z AUTO 22010KT 9999 BKN022 OVC037 21/17 Q1008 TEMPO BKN012

EXPIRED METARs :
  • 231800Z AUTO 23009KT 200V270 9999 FEW021 BKN031 OVC037 22/17 Q1008 TEMPO BKN012
  • 231730Z AUTO 22010KT 9999 BKN020 OVC030 22/17 Q1008 TEMPO BKN012
  • 231700Z AUTO 20010KT 170V240 9999 BKN016 BKN025 BKN030 22/18 Q1008 NOSIG
  • 231630Z AUTO 20011KT 9999 FEW014 SCT028 OVC044 21/18 Q1008 NOSIG
  • 231600Z AUTO 22010KT 190V250 9999 SCT016 BKN022 BKN029 22/18 Q1008 NOSIG

TAF TAF LFRS
Valid from the 23 at 18:00 until the 25 at 00:00 UTC


231700Z 2318/2424 22012KT 9999 BKN016
TEMPO 2318/2320 BKN012
TEMPO 2403/2424 4500 -SHRA BKN030TCU
PROB40
TEMPO 2412/2416 16015G30KT 2000 TSRA BKN008 BKN030CB
ATIS : +33 2 40 05 12 74



MET'MAP, your aeronautical weather chart ! - Copyright ORBIFLY December 2007 - Disclaimer

ORBIFLY MET'MAP TEAM :

Programming & Development : Alexandra Zaïnal
Concept & original design : Baudouin d'Aumeries
Assistance for programming : Marc-Olivier Méhu
Technical & hardware support : Manuel Goepfert

Contact : metmap@orbifly.com




SOURCES & CREDITS :

   NOAA